Terminal Aerodrome Forecast
Issued by NWS

Home | Current Version | Previous Version | Text Only | Print | Product List | Glossary On
Versions: 1 2 3 4 5 6 7 8 9 10 11 12 13 14 15
000
FTPA31 PHFO 242340
TAFHMK
TAF
PHMK 242340Z 2500/2524 32006KT P6SM VCSH SCT015 BKN040
     FM250400 VRB05KT P6SM VCSH FEW025 BKN045
     FM252000 05014G20KT P6SM FEW025 SCT045=

USA.gov is the U.S. government's official web portal to all federal, state and local government web resources and services.